Charlotte, Maine
Current Conditions -  °F | °C
As of 11:15 PM on Friday 19 Dec 2014 (Local Time) from KBHB Reporting Station
Clear Clear  
Wind Chill: 14°   Ceiling: Unl
Heat Index: 25°   Visibility: 10mi
Dew Point: 21°   Wind: 12mph
Humidity: 86%   Direction: 360°N
Pressure: 30.11"   Gusts: 18mph
Location:  44.9808°N, 67.2405°W
Report Text: KBHB 200415Z AUTO 36010G16KT 10SM CLR M04/M06 A3011 RMK AO1
Loading
Personal Weather Stations






























Interactive Weather Map New forecast layout! Learn more

10-Day Weather Forecast

Advertisements
Track Severe Weather on mobile